createdAt,value
2022-10-10T00:00:13.570Z,13.57
2022-10-10T00:00:45.919Z,12.95
2022-10-10T00:01:18.957Z,11.77
2022-10-10T00:01:51.729Z,12.85
2022-10-10T00:02:23.575Z,13.45
2022-10-10T00:02:55.338Z,12.80
2022-10-10T00:03:27.141Z,14.05
2022-10-10T00:04:00.522Z,48.40
2022-10-10T00:04:32.324Z,27.08
2022-10-10T00:05:04.805Z,40.00
2022-10-10T00:05:39.222Z,40.17
2022-10-10T00:06:12.002Z,31.13
2022-10-10T00:06:43.749Z,28.50
2022-10-10T00:07:16.503Z,26.20
2022-10-10T00:07:48.321Z,21.58
2022-10-10T00:08:21.497Z,19.55
2022-10-10T00:08:54.462Z,15.88
2022-10-10T00:09:26.230Z,15.13
2022-10-10T00:09:58.200Z,14.68
2022-10-10T00:10:31.611Z,14.20
2022-10-10T00:11:03.790Z,15.02
2022-10-10T00:11:36.248Z,15.73
2022-10-10T00:12:08.988Z,12.77
2022-10-10T00:12:40.842Z,13.38
2022-10-10T00:13:12.718Z,13.93
2022-10-10T00:13:45.891Z,14.27
2022-10-10T00:14:17.756Z,13.35
2022-10-10T00:14:49.529Z,13.20
2022-10-10T00:15:21.650Z,13.60
2022-10-10T00:15:54.401Z,14.02
2022-10-10T00:16:26.260Z,13.27
2022-10-10T00:16:58.049Z,12.55
2022-10-10T00:17:30.823Z,12.90
2022-10-10T00:18:03.620Z,13.18
2022-10-10T00:18:35.836Z,13.75
2022-10-10T00:19:08.692Z,13.73
2022-10-10T00:19:40.477Z,13.70
2022-10-10T00:20:14.780Z,14.05
2022-10-10T00:20:47.522Z,13.30
2022-10-10T00:21:19.564Z,13.90
2022-10-10T00:21:52.305Z,12.43
2022-10-10T00:22:24.185Z,12.88
2022-10-10T00:22:56.020Z,14.85
2022-10-10T00:23:30.189Z,13.00
2022-10-10T00:24:02.032Z,14.65
2022-10-10T00:24:33.776Z,13.10
2022-10-10T00:25:08.354Z,14.00
2022-10-10T00:25:40.136Z,12.88
2022-10-10T00:26:16.265Z,14.18
2022-10-10T00:26:51.465Z,13.68
2022-10-10T00:27:23.263Z,13.48
2022-10-10T00:27:55.364Z,11.70
2022-10-10T00:28:28.449Z,13.73
2022-10-10T00:29:00.640Z,13.10
2022-10-10T00:29:32.422Z,13.50
2022-10-10T00:30:07.008Z,13.30
2022-10-10T00:30:38.855Z,13.25
2022-10-10T00:31:10.780Z,14.02
2022-10-10T00:31:43.553Z,12.50
2022-10-10T00:32:15.363Z,12.48
2022-10-10T00:32:47.519Z,13.95
2022-10-10T00:33:20.698Z,12.82
2022-10-10T00:33:52.609Z,13.80
2022-10-10T00:34:24.628Z,13.30
2022-10-10T00:34:56.407Z,13.40
2022-10-10T00:35:29.776Z,13.43
2022-10-10T00:36:01.703Z,13.85
2022-10-10T00:36:33.472Z,13.77
2022-10-10T00:37:06.230Z,11.80
2022-10-10T00:37:38.042Z,14.30
2022-10-10T00:38:10.505Z,13.00
2022-10-10T00:38:44.701Z,14.23
2022-10-10T00:39:16.494Z,13.82
2022-10-10T00:39:48.414Z,14.50
2022-10-10T00:40:20.448Z,13.75
2022-10-10T00:40:55.099Z,14.10
2022-10-10T00:41:27.102Z,14.15
2022-10-10T00:41:58.901Z,15.18
2022-10-10T00:42:31.656Z,14.70
2022-10-10T00:43:03.458Z,14.20
2022-10-10T00:43:35.874Z,14.75
2022-10-10T00:44:09.647Z,14.10
2022-10-10T00:44:43.084Z,16.08
2022-10-10T00:45:30.935Z,14.13
2022-10-10T00:46:03.677Z,14.32
2022-10-10T00:46:35.947Z,14.30
2022-10-10T00:47:08.116Z,14.10
2022-10-10T00:47:40.833Z,14.15
2022-10-10T00:48:15.201Z,14.68
2022-10-10T00:48:47.023Z,13.40
2022-10-10T00:49:23.981Z,14.45
2022-10-10T00:49:55.774Z,13.63
2022-10-10T00:50:28.687Z,15.30
2022-10-10T00:51:05.008Z,15.27
2022-10-10T00:51:37.802Z,14.35
2022-10-10T00:52:11.110Z,14.10
2022-10-10T00:52:42.989Z,14.30
2022-10-10T00:53:18.623Z,15.70
2022-10-10T00:53:55.423Z,14.75
2022-10-10T00:54:29.082Z,14.10
2022-10-10T00:55:01.816Z,13.88
2022-10-10T00:55:34.569Z,14.48
2022-10-10T00:56:07.726Z,12.77
2022-10-10T00:56:45.019Z,14.85
2022-10-10T00:57:16.844Z,14.50
2022-10-10T00:57:50.190Z,13.38
2022-10-10T00:58:23.720Z,13.32
2022-10-10T00:59:00.273Z,13.98
2022-10-10T00:59:33.759Z,14.65
2022-10-10T01:00:07.570Z,12.52
2022-10-10T01:00:39.374Z,15.88
2022-10-10T01:01:11.397Z,13.40
2022-10-10T01:01:44.338Z,14.30
2022-10-10T01:02:16.102Z,14.38
2022-10-10T01:02:48.263Z,14.30
2022-10-10T01:03:21.269Z,13.88
2022-10-10T01:03:56.837Z,14.73
2022-10-10T01:04:32.946Z,14.18
2022-10-10T01:05:06.437Z,14.15
2022-10-10T01:05:39.429Z,15.20
2022-10-10T01:06:11.480Z,14.68
2022-10-10T01:06:44.258Z,15.38
2022-10-10T01:07:20.462Z,13.98
2022-10-10T01:07:52.380Z,14.45
2022-10-10T01:08:25.225Z,13.85
2022-10-10T01:08:58.753Z,17.08
2022-10-10T01:09:32.014Z,14.57
2022-10-10T01:10:09.885Z,14.55
2022-10-10T01:10:54.071Z,13.63
2022-10-10T01:11:42.074Z,14.88
2022-10-10T01:12:20.692Z,14.23
2022-10-10T01:13:03.108Z,14.73
2022-10-10T01:13:43.958Z,14.27
2022-10-10T01:14:29.031Z,14.75
2022-10-10T01:15:09.204Z,14.82
2022-10-10T01:15:49.961Z,13.68
2022-10-10T01:16:27.494Z,14.95
2022-10-10T01:17:06.596Z,13.80
2022-10-10T01:17:42.999Z,15.13
2022-10-10T01:18:23.596Z,15.80
2022-10-10T01:19:05.206Z,15.52
2022-10-10T01:19:59.465Z,14.85
2022-10-10T01:20:58.712Z,15.73
2022-10-10T01:21:38.416Z,14.73
2022-10-10T01:22:21.347Z,15.18
2022-10-10T01:23:12.362Z,14.23
2022-10-10T01:24:26.021Z,15.02
2022-10-10T01:25:14.499Z,15.13
2022-10-10T01:26:01.209Z,15.63
2022-10-10T01:27:09.119Z,15.15
2022-10-10T01:27:44.985Z,14.90
2022-10-10T01:28:30.878Z,14.70
2022-10-10T01:29:07.708Z,14.20
2022-10-10T01:29:43.679Z,13.75
2022-10-10T01:30:19.764Z,14.23
2022-10-10T01:30:51.678Z,14.35
2022-10-10T01:31:26.289Z,15.05
2022-10-10T01:32:04.953Z,16.70
2022-10-10T01:32:43.781Z,16.00
2022-10-10T01:33:22.024Z,15.48
2022-10-10T01:34:03.477Z,16.20
2022-10-10T01:34:46.109Z,16.00
2022-10-10T01:35:40.005Z,15.10
2022-10-10T01:36:21.905Z,14.77
2022-10-10T01:36:59.564Z,15.75
2022-10-10T01:37:40.685Z,15.30
2022-10-10T01:38:23.202Z,14.48
2022-10-10T01:39:02.208Z,14.55
2022-10-10T01:39:42.914Z,14.88
2022-10-10T01:40:29.743Z,14.70
2022-10-10T01:41:06.290Z,15.77
2022-10-10T01:41:43.206Z,16.02
2022-10-10T01:42:21.105Z,14.65
2022-10-10T01:42:55.470Z,13.90
2022-10-10T01:43:30.552Z,14.85
2022-10-10T01:44:03.394Z,15.40
2022-10-10T01:44:35.190Z,15.73
2022-10-10T01:45:07.878Z,15.70
2022-10-10T01:45:45.217Z,15.65
2022-10-10T01:46:18.665Z,15.75
2022-10-10T01:46:50.461Z,15.52
2022-10-10T01:47:22.496Z,15.23
2022-10-10T01:47:58.702Z,16.00
2022-10-10T01:48:31.725Z,15.30
2022-10-10T01:49:03.787Z,16.50
2022-10-10T01:49:36.573Z,15.85
2022-10-10T01:50:12.179Z,17.00
2022-10-10T01:50:59.510Z,16.10
2022-10-10T01:51:48.662Z,15.07
2022-10-10T01:52:32.804Z,15.90
2022-10-10T01:53:12.480Z,15.50
2022-10-10T01:53:57.045Z,14.13
2022-10-10T01:54:38.675Z,14.93
2022-10-10T01:55:27.042Z,15.60
2022-10-10T01:56:06.678Z,15.27
2022-10-10T01:56:44.745Z,15.80
2022-10-10T01:57:22.108Z,16.17
2022-10-10T01:58:07.652Z,16.83
2022-10-10T01:58:54.376Z,16.55
2022-10-10T01:59:45.230Z,14.90
2022-10-10T02:00:18.264Z,16.20
2022-10-10T02:00:59.830Z,15.35
2022-10-10T02:01:36.865Z,16.73
2022-10-10T02:02:15.925Z,15.25
2022-10-10T02:02:54.692Z,16.80
2022-10-10T02:03:31.510Z,15.57
2022-10-10T02:04:09.545Z,16.65
2022-10-10T02:04:46.638Z,15.13
2022-10-10T02:05:25.634Z,16.23
2022-10-10T02:06:01.498Z,15.75
2022-10-10T02:06:40.896Z,17.05
2022-10-10T02:07:20.890Z,14.50
2022-10-10T02:07:57.654Z,16.35
2022-10-10T02:08:35.014Z,15.85
2022-10-10T02:09:12.416Z,15.93
2022-10-10T02:09:46.437Z,16.42
2022-10-10T02:10:23.833Z,16.33
2022-10-10T02:11:00.867Z,17.20
2022-10-10T02:11:35.282Z,16.88
2022-10-10T02:12:09.640Z,16.60
2022-10-10T02:12:42.756Z,17.10
2022-10-10T02:13:16.906Z,16.35
2022-10-10T02:13:53.948Z,17.92
2022-10-10T02:14:32.804Z,16.20
2022-10-10T02:15:10.192Z,16.50
2022-10-10T02:15:46.718Z,16.85
2022-10-10T02:16:22.673Z,15.93
2022-10-10T02:16:55.796Z,16.38
2022-10-10T02:17:27.922Z,15.15
2022-10-10T02:18:02.812Z,15.10
2022-10-10T02:18:36.037Z,16.02
2022-10-10T02:19:09.813Z,17.63
2022-10-10T02:19:45.715Z,15.02
2022-10-10T02:20:22.021Z,16.60
2022-10-10T02:20:54.270Z,16.73
2022-10-10T02:21:28.022Z,16.63
2022-10-10T02:22:01.077Z,16.50
2022-10-10T02:22:33.760Z,16.20
2022-10-10T02:23:07.846Z,17.13
2022-10-10T02:23:42.184Z,17.35
2022-10-10T02:24:15.036Z,16.55
2022-10-10T02:24:47.766Z,15.15
2022-10-10T02:25:22.401Z,14.95
2022-10-10T02:25:56.500Z,15.10
2022-10-10T02:26:30.085Z,14.45
2022-10-10T02:27:08.116Z,17.25
2022-10-10T02:27:44.708Z,16.13
2022-10-10T02:28:24.056Z,16.00
2022-10-10T02:29:00.933Z,16.27
2022-10-10T02:29:36.620Z,15.98
2022-10-10T02:30:10.078Z,16.80
2022-10-10T02:30:46.320Z,16.15
2022-10-10T02:31:26.907Z,15.63
2022-10-10T02:32:05.310Z,15.15
2022-10-10T02:32:41.825Z,17.40
2022-10-10T02:33:17.776Z,15.55
2022-10-10T02:33:53.705Z,16.00
2022-10-10T02:34:30.255Z,14.60
2022-10-10T02:35:08.140Z,15.57
2022-10-10T02:35:43.099Z,14.00
2022-10-10T02:36:18.271Z,14.15
2022-10-10T02:36:54.355Z,14.65
2022-10-10T02:37:27.554Z,14.18
2022-10-10T02:38:02.178Z,14.68
2022-10-10T02:38:34.123Z,15.40
2022-10-10T02:39:07.365Z,15.00
2022-10-10T02:39:43.344Z,15.80
2022-10-10T02:40:20.285Z,15.43
2022-10-10T02:40:53.044Z,16.55
2022-10-10T02:41:28.629Z,15.65
2022-10-10T02:42:00.807Z,16.15
2022-10-10T02:42:34.261Z,16.25
2022-10-10T02:43:08.769Z,16.17
2022-10-10T02:43:41.004Z,14.85
2022-10-10T02:44:14.874Z,15.77
2022-10-10T02:44:48.642Z,15.80
2022-10-10T02:45:22.045Z,15.43
2022-10-10T02:45:53.845Z,17.23
2022-10-10T02:46:26.602Z,15.20
2022-10-10T02:46:58.685Z,15.05
2022-10-10T02:47:30.478Z,14.57
2022-10-10T02:48:03.886Z,14.90
2022-10-10T02:48:35.728Z,14.70
2022-10-10T02:49:09.069Z,15.93
2022-10-10T02:49:42.269Z,16.15
2022-10-10T02:50:14.276Z,15.25
2022-10-10T02:50:46.352Z,14.85
2022-10-10T02:51:19.284Z,14.13
2022-10-10T02:51:51.093Z,14.70
2022-10-10T02:52:23.030Z,15.20
2022-10-10T02:52:55.882Z,14.63
2022-10-10T02:53:27.786Z,14.27
2022-10-10T02:53:59.917Z,14.80
2022-10-10T02:54:32.843Z,15.10
2022-10-10T02:55:05.561Z,14.40
2022-10-10T02:55:37.307Z,14.23
2022-10-10T02:56:10.077Z,15.93
2022-10-10T02:56:41.858Z,15.10
2022-10-10T02:57:13.752Z,13.70
2022-10-10T02:57:46.519Z,16.95
2022-10-10T02:58:19.070Z,15.30
2022-10-10T02:58:50.822Z,14.93
2022-10-10T02:59:25.155Z,14.70
2022-10-10T02:59:57.138Z,16.25
2022-10-10T03:00:28.923Z,13.27
2022-10-10T03:01:00.877Z,14.95
2022-10-10T03:01:33.711Z,15.07
2022-10-10T03:02:06.300Z,15.85
2022-10-10T03:02:38.289Z,14.65
2022-10-10T03:03:11.045Z,14.23
2022-10-10T03:03:42.832Z,14.85
2022-10-10T03:04:15.311Z,14.80
2022-10-10T03:04:48.132Z,15.82
2022-10-10T03:05:19.985Z,17.23
2022-10-10T03:05:51.792Z,46.42
2022-10-10T03:06:25.312Z,36.58
2022-10-10T03:06:57.140Z,28.23
2022-10-10T03:07:28.964Z,21.60
2022-10-10T03:08:01.764Z,17.55
2022-10-10T03:08:33.532Z,16.20
2022-10-10T03:09:05.861Z,17.42
2022-10-10T03:09:38.613Z,17.10
2022-10-10T03:10:10.520Z,15.52
2022-10-10T03:10:43.358Z,13.70
2022-10-10T03:11:15.113Z,14.90
2022-10-10T03:11:46.861Z,15.38
2022-10-10T03:12:19.639Z,15.38
2022-10-10T03:12:51.856Z,14.70
2022-10-10T03:13:24.184Z,14.43
2022-10-10T03:13:56.912Z,14.70
2022-10-10T03:14:30.117Z,14.77
2022-10-10T03:15:02.014Z,14.57
2022-10-10T03:15:34.800Z,14.38
2022-10-10T03:16:06.980Z,14.90
2022-10-10T03:16:38.784Z,13.93
2022-10-10T03:17:11.670Z,14.05
2022-10-10T03:17:43.837Z,13.73
2022-10-10T03:18:15.727Z,14.52
2022-10-10T03:18:48.440Z,13.43
2022-10-10T03:19:20.281Z,14.95
2022-10-10T03:19:52.049Z,15.30
2022-10-10T03:20:24.777Z,16.27
2022-10-10T03:20:56.740Z,16.40
2022-10-10T03:21:28.553Z,14.10
2022-10-10T03:22:01.304Z,15.13
2022-10-10T03:22:33.134Z,15.93
2022-10-10T03:23:04.928Z,14.50
2022-10-10T03:23:37.753Z,15.15
2022-10-10T03:24:09.553Z,14.30
2022-10-10T03:24:41.345Z,14.85
2022-10-10T03:25:14.056Z,16.48
2022-10-10T03:25:46.125Z,15.07
2022-10-10T03:26:17.902Z,15.98
2022-10-10T03:26:50.621Z,15.63
2022-10-10T03:27:22.389Z,14.73
2022-10-10T03:27:54.145Z,15.20
2022-10-10T03:28:26.907Z,13.73
2022-10-10T03:28:58.762Z,15.85
2022-10-10T03:29:31.982Z,14.75
2022-10-10T03:30:05.312Z,14.05
2022-10-10T03:30:37.570Z,14.73
2022-10-10T03:31:09.385Z,14.93
2022-10-10T03:31:42.134Z,15.20
2022-10-10T03:32:13.916Z,14.98
2022-10-10T03:32:45.657Z,16.25
2022-10-10T03:33:18.448Z,15.05
2022-10-10T03:33:50.240Z,14.63
2022-10-10T03:34:22.026Z,14.40
2022-10-10T03:34:53.947Z,14.00
2022-10-10T03:35:26.864Z,15.90
2022-10-10T03:35:58.681Z,14.52
2022-10-10T03:36:31.688Z,16.10
2022-10-10T03:37:03.502Z,15.30
2022-10-10T03:37:35.774Z,14.52
2022-10-10T03:38:07.895Z,15.73
2022-10-10T03:38:40.857Z,14.55
2022-10-10T03:39:12.803Z,15.32
2022-10-10T03:39:44.565Z,17.30
2022-10-10T03:40:17.453Z,16.05
2022-10-10T03:40:49.219Z,16.70
2022-10-10T03:41:21.506Z,16.35
2022-10-10T03:41:54.266Z,16.60
2022-10-10T03:42:26.032Z,14.80
2022-10-10T03:42:58.217Z,14.68
2022-10-10T03:43:31.005Z,14.60
2022-10-10T03:44:02.785Z,15.82
2022-10-10T03:44:36.661Z,13.55
2022-10-10T03:45:09.186Z,14.85
2022-10-10T03:45:44.241Z,16.58
2022-10-10T03:46:16.657Z,15.82
2022-10-10T03:46:48.511Z,16.92
2022-10-10T03:47:20.263Z,14.60
2022-10-10T03:47:53.018Z,16.60
2022-10-10T03:48:24.882Z,15.85
2022-10-10T03:48:56.657Z,15.30
2022-10-10T03:49:30.146Z,14.57
2022-10-10T03:50:01.996Z,16.05
2022-10-10T03:50:33.784Z,15.10
2022-10-10T03:51:07.042Z,15.73
2022-10-10T03:51:38.887Z,15.55
2022-10-10T03:52:10.674Z,15.50
2022-10-10T03:52:43.390Z,15.13
2022-10-10T03:53:15.232Z,15.55
2022-10-10T03:53:47.030Z,15.05
2022-10-10T03:54:19.815Z,15.52
2022-10-10T03:54:51.600Z,14.80
2022-10-10T03:55:23.410Z,14.20
2022-10-10T03:55:56.166Z,14.85
2022-10-10T03:56:27.995Z,14.60
2022-10-10T03:56:59.770Z,15.25
2022-10-10T03:57:32.510Z,14.15
2022-10-10T03:58:04.258Z,14.90
2022-10-10T03:58:36.048Z,14.30
2022-10-10T03:59:08.803Z,13.82
2022-10-10T03:59:41.923Z,12.90
2022-10-10T04:00:14.488Z,13.10
2022-10-10T04:00:54.582Z,13.40
2022-10-10T04:01:26.580Z,14.20
2022-10-10T04:01:58.485Z,13.40
2022-10-10T04:02:31.258Z,13.63
2022-10-10T04:03:06.185Z,13.23
2022-10-10T04:03:37.960Z,13.80
2022-10-10T04:04:10.843Z,13.77
2022-10-10T04:04:42.652Z,12.15
2022-10-10T04:05:14.447Z,12.43
2022-10-10T04:05:47.232Z,12.55
2022-10-10T04:06:19.178Z,12.77
2022-10-10T04:06:50.937Z,12.20
2022-10-10T04:07:23.641Z,12.77
2022-10-10T04:07:55.416Z,11.75
2022-10-10T04:08:28.192Z,12.05
2022-10-10T04:09:00.924Z,12.25
2022-10-10T04:09:32.701Z,11.93
2022-10-10T04:10:06.482Z,13.52
2022-10-10T04:10:39.320Z,10.88
2022-10-10T04:11:11.134Z,13.27
2022-10-10T04:11:43.307Z,11.63
2022-10-10T04:12:15.069Z,12.23
2022-10-10T04:12:47.940Z,11.65
2022-10-10T04:13:21.207Z,12.75
2022-10-10T04:13:53.013Z,12.20
2022-10-10T04:14:26.015Z,11.63
2022-10-10T04:14:59.178Z,12.40
2022-10-10T04:15:31.702Z,12.27
2022-10-10T04:16:04.654Z,13.23
2022-10-10T04:16:36.448Z,12.77
2022-10-10T04:17:08.637Z,11.25
2022-10-10T04:17:41.354Z,11.88
2022-10-10T04:18:13.141Z,12.77
2022-10-10T04:18:44.920Z,11.65
2022-10-10T04:19:16.724Z,12.30
2022-10-10T04:19:49.475Z,12.05
2022-10-10T04:20:21.411Z,12.82
2022-10-10T04:20:53.333Z,12.43
2022-10-10T04:21:26.087Z,11.55
2022-10-10T04:21:57.910Z,12.00
2022-10-10T04:22:29.688Z,11.23
2022-10-10T04:23:02.417Z,11.52
2022-10-10T04:23:34.918Z,10.88
2022-10-10T04:24:06.876Z,10.55
2022-10-10T04:24:39.756Z,11.35
2022-10-10T04:25:12.025Z,10.57
2022-10-10T04:25:44.214Z,11.88
2022-10-10T04:26:16.974Z,11.15
2022-10-10T04:26:48.753Z,12.38
2022-10-10T04:27:20.574Z,11.77
2022-10-10T04:27:53.611Z,11.90
2022-10-10T04:28:27.973Z,12.05
2022-10-10T04:28:59.870Z,10.95
2022-10-10T04:29:31.815Z,12.07
2022-10-10T04:30:07.467Z,10.98
2022-10-10T04:30:39.239Z,9.77
2022-10-10T04:31:11.613Z,9.80
2022-10-10T04:31:44.347Z,10.20
2022-10-10T04:32:16.111Z,10.50
2022-10-10T04:32:48.138Z,10.25
2022-10-10T04:33:20.974Z,10.32
2022-10-10T04:33:52.877Z,11.30
2022-10-10T04:34:24.874Z,10.35
2022-10-10T04:34:56.842Z,11.00
2022-10-10T04:35:29.662Z,11.00
2022-10-10T04:36:01.464Z,10.18
2022-10-10T04:36:33.361Z,10.10
2022-10-10T04:37:06.081Z,10.65
2022-10-10T04:37:37.860Z,10.60
2022-10-10T04:38:09.688Z,9.55
2022-10-10T04:38:43.174Z,9.93
2022-10-10T04:39:14.946Z,9.35
2022-10-10T04:39:46.733Z,10.88
2022-10-10T04:40:24.044Z,11.55
2022-10-10T04:40:58.146Z,9.60
2022-10-10T04:41:29.936Z,10.77
2022-10-10T04:42:02.742Z,8.63
2022-10-10T04:42:35.020Z,10.55
2022-10-10T04:43:06.855Z,10.80
2022-10-10T04:43:39.616Z,9.23
2022-10-10T04:44:11.363Z,9.88
2022-10-10T04:44:43.195Z,11.70
2022-10-10T04:45:16.503Z,10.75
2022-10-10T04:45:49.253Z,15.32
2022-10-10T04:46:21.084Z,11.82
2022-10-10T04:46:52.887Z,10.35
2022-10-10T04:47:25.644Z,9.15
2022-10-10T04:47:57.436Z,10.77
2022-10-10T04:48:29.343Z,9.80
2022-10-10T04:49:02.104Z,9.30
2022-10-10T04:49:33.885Z,9.70
2022-10-10T04:50:06.652Z,10.23
2022-10-10T04:50:40.223Z,10.55
2022-10-10T04:51:12.012Z,9.27
2022-10-10T04:51:43.783Z,10.55
2022-10-10T04:52:16.698Z,8.98
2022-10-10T04:52:48.901Z,9.13
2022-10-10T04:53:21.278Z,9.73
2022-10-10T04:53:54.030Z,9.68
2022-10-10T04:54:25.805Z,9.52
2022-10-10T04:54:57.682Z,9.55
2022-10-10T04:55:30.466Z,9.07
2022-10-10T04:56:02.265Z,9.13
2022-10-10T04:56:34.032Z,10.10
2022-10-10T04:57:06.842Z,9.55
2022-10-10T04:57:38.631Z,9.20
2022-10-10T04:58:10.400Z,9.13
2022-10-10T04:58:43.170Z,8.40
2022-10-10T04:59:14.933Z,9.90
2022-10-10T04:59:46.670Z,9.02
2022-10-10T05:00:20.942Z,9.50
2022-10-10T05:00:53.234Z,8.80
2022-10-10T05:01:25.163Z,9.18
2022-10-10T05:02:01.525Z,8.57
2022-10-10T05:02:33.773Z,8.73
2022-10-10T05:03:06.236Z,9.05
2022-10-10T05:03:38.982Z,9.10
2022-10-10T05:04:11.560Z,9.15
2022-10-10T05:04:43.317Z,8.02
2022-10-10T05:05:15.187Z,8.10
2022-10-10T05:05:48.117Z,8.10
2022-10-10T05:06:20.313Z,8.55
2022-10-10T05:06:53.056Z,9.10
2022-10-10T05:07:24.948Z,8.52
2022-10-10T05:07:56.802Z,8.23
2022-10-10T05:08:29.550Z,8.30
2022-10-10T05:09:01.354Z,8.25
2022-10-10T05:09:33.734Z,8.82
2022-10-10T05:10:06.745Z,8.13
2022-10-10T05:10:40.690Z,7.72
2022-10-10T05:11:12.466Z,7.38
2022-10-10T05:11:44.275Z,7.88
2022-10-10T05:12:17.383Z,7.63
2022-10-10T05:12:49.428Z,7.80
2022-10-10T05:13:21.536Z,7.53
2022-10-10T05:13:54.267Z,7.38
2022-10-10T05:14:26.383Z,7.85
2022-10-10T05:14:58.165Z,6.80
2022-10-10T05:15:33.825Z,7.93
2022-10-10T05:16:07.225Z,7.82
2022-10-10T05:16:39.022Z,6.65
2022-10-10T05:17:10.788Z,7.93
2022-10-10T05:17:43.506Z,7.38
2022-10-10T05:18:15.244Z,8.40
2022-10-10T05:18:47.048Z,8.88
2022-10-10T05:19:19.965Z,7.72
2022-10-10T05:19:52.210Z,6.97
2022-10-10T05:20:24.335Z,7.65
2022-10-10T05:21:02.557Z,7.38
2022-10-10T05:21:35.291Z,8.00
2022-10-10T05:22:07.258Z,7.10
2022-10-10T05:22:39.976Z,6.85
2022-10-10T05:23:11.729Z,7.43
2022-10-10T05:23:43.586Z,7.97
2022-10-10T05:24:16.313Z,6.38
2022-10-10T05:24:48.126Z,7.50
2022-10-10T05:25:20.094Z,7.45
2022-10-10T05:25:52.848Z,7.97
2022-10-10T05:26:24.599Z,8.13
2022-10-10T05:26:56.357Z,6.63
2022-10-10T05:27:29.769Z,7.85
2022-10-10T05:28:01.545Z,6.65
2022-10-10T05:28:35.150Z,8.50
2022-10-10T05:29:07.959Z,9.45
2022-10-10T05:29:39.720Z,11.75
2022-10-10T05:30:12.592Z,15.00
2022-10-10T05:30:46.750Z,10.02
2022-10-10T05:31:18.508Z,10.43
2022-10-10T05:31:50.301Z,9.75
2022-10-10T05:32:23.185Z,8.18
2022-10-10T05:32:54.964Z,7.22
2022-10-10T05:33:26.868Z,8.45
2022-10-10T05:33:58.700Z,8.50
2022-10-10T05:34:31.460Z,8.55
2022-10-10T05:35:04.159Z,7.10
2022-10-10T05:35:35.937Z,7.50
2022-10-10T05:36:11.195Z,7.90
2022-10-10T05:36:43.172Z,7.95
2022-10-10T05:37:15.999Z,8.75
2022-10-10T05:37:48.925Z,12.02
2022-10-10T05:38:20.672Z,9.25
2022-10-10T05:38:52.547Z,9.00
2022-10-10T05:39:25.840Z,8.43
2022-10-10T05:39:57.732Z,10.00
2022-10-10T05:40:29.513Z,7.88
2022-10-10T05:41:02.366Z,9.02
2022-10-10T05:41:34.201Z,6.55
2022-10-10T05:42:06.121Z,7.88
2022-10-10T05:42:38.889Z,8.00
2022-10-10T05:43:10.966Z,8.45
2022-10-10T05:43:42.757Z,6.95
2022-10-10T05:44:15.749Z,7.13
2022-10-10T05:44:47.613Z,6.40
2022-10-10T05:45:19.408Z,7.43
2022-10-10T05:45:53.982Z,6.47
2022-10-10T05:46:27.401Z,7.38
2022-10-10T05:46:59.444Z,6.03
2022-10-10T05:47:32.174Z,7.45
2022-10-10T05:48:04.117Z,6.30
2022-10-10T05:48:36.896Z,6.07
2022-10-10T05:49:08.718Z,5.93
2022-10-10T05:49:40.809Z,7.05
2022-10-10T05:50:26.213Z,6.95
2022-10-10T05:51:00.253Z,6.18
2022-10-10T05:51:32.069Z,6.78
2022-10-10T05:52:04.846Z,6.68
2022-10-10T05:52:36.618Z,6.90
2022-10-10T05:53:08.393Z,7.95
2022-10-10T05:53:41.144Z,20.92
2022-10-10T05:54:12.991Z,20.60
2022-10-10T05:54:44.955Z,32.10
2022-10-10T05:55:17.874Z,16.90
2022-10-10T05:55:49.833Z,12.02
2022-10-10T05:56:24.093Z,7.70
2022-10-10T05:56:56.999Z,7.93
2022-10-10T05:57:28.761Z,7.70
2022-10-10T05:58:00.598Z,6.53
2022-10-10T05:58:33.408Z,8.32
2022-10-10T05:59:05.244Z,7.93
2022-10-10T05:59:37.976Z,7.97
2022-10-10T06:00:10.848Z,6.75
2022-10-10T06:00:44.164Z,7.22
2022-10-10T06:01:18.379Z,7.70
2022-10-10T06:01:50.324Z,6.95
2022-10-10T06:02:22.164Z,7.15
2022-10-10T06:02:55.550Z,6.68
2022-10-10T06:03:27.606Z,7.45
2022-10-10T06:03:59.462Z,6.53
2022-10-10T06:04:32.317Z,6.75
2022-10-10T06:05:04.715Z,6.60
2022-10-10T06:05:37.138Z,6.65
2022-10-10T06:06:09.864Z,6.60
2022-10-10T06:06:41.762Z,6.13
2022-10-10T06:07:13.647Z,6.70
2022-10-10T06:08:04.539Z,6.85
2022-10-10T06:08:37.457Z,7.25
2022-10-10T06:09:10.308Z,7.00
2022-10-10T06:09:42.142Z,7.18
2022-10-10T06:10:13.930Z,7.00
2022-10-10T06:10:47.336Z,7.05
2022-10-10T06:11:20.497Z,6.47
2022-10-10T06:11:53.314Z,6.50
2022-10-10T06:12:25.139Z,6.75
2022-10-10T06:12:56.959Z,6.75
2022-10-10T06:13:29.786Z,6.53
2022-10-10T06:14:01.579Z,6.63
2022-10-10T06:14:33.471Z,5.45
2022-10-10T06:15:07.306Z,6.75
2022-10-10T06:15:39.100Z,6.72
2022-10-10T06:16:12.233Z,6.10
2022-10-10T06:16:45.868Z,6.85
2022-10-10T06:17:17.657Z,6.65
2022-10-10T06:17:50.441Z,6.30
2022-10-10T06:18:22.478Z,6.28
2022-10-10T06:18:56.550Z,7.30
2022-10-10T06:19:28.335Z,7.38
2022-10-10T06:20:00.149Z,6.78
2022-10-10T06:20:35.648Z,7.30
2022-10-10T06:21:08.309Z,6.85
2022-10-10T06:21:41.114Z,8.35
2022-10-10T06:22:12.956Z,7.35
2022-10-10T06:22:44.798Z,7.55
2022-10-10T06:23:18.055Z,7.35
2022-10-10T06:23:51.002Z,7.60
2022-10-10T06:24:22.813Z,7.18
2022-10-10T06:24:55.600Z,8.27
2022-10-10T06:25:39.924Z,8.57
2022-10-10T06:26:13.589Z,7.78
2022-10-10T06:26:45.417Z,8.07
2022-10-10T06:27:18.257Z,8.50
2022-10-10T06:27:50.064Z,7.88
2022-10-10T06:28:22.837Z,8.65
2022-10-10T06:28:55.625Z,8.45
2022-10-10T06:29:27.777Z,9.35
2022-10-10T06:29:59.818Z,8.32
2022-10-10T06:30:34.639Z,7.75
2022-10-10T06:31:08.294Z,7.07
2022-10-10T06:31:41.186Z,8.75
2022-10-10T06:32:14.360Z,9.00
2022-10-10T06:32:46.144Z,8.07
2022-10-10T06:33:19.587Z,8.07
2022-10-10T06:33:53.073Z,9.40
2022-10-10T06:34:25.921Z,8.20
2022-10-10T06:34:57.719Z,8.20
2022-10-10T06:35:29.650Z,8.55
2022-10-10T06:36:06.309Z,8.15
2022-10-10T06:36:38.083Z,9.30
2022-10-10T06:37:12.285Z,8.48
2022-10-10T06:37:44.159Z,9.25
2022-10-10T06:38:17.094Z,9.52
2022-10-10T06:38:49.816Z,8.50
2022-10-10T06:39:21.610Z,8.20
2022-10-10T06:39:53.553Z,8.18
2022-10-10T06:40:26.287Z,8.38
2022-10-10T06:41:02.156Z,8.38
2022-10-10T06:41:34.885Z,9.40
2022-10-10T06:42:06.705Z,7.32
2022-10-10T06:42:38.554Z,8.82
2022-10-10T06:43:12.854Z,8.40
2022-10-10T06:43:44.632Z,7.60
2022-10-10T06:44:18.306Z,8.80
2022-10-10T06:44:50.094Z,7.63
2022-10-10T06:45:21.847Z,11.90
2022-10-10T06:45:54.577Z,14.32
2022-10-10T06:46:26.460Z,16.98
2022-10-10T06:46:58.221Z,19.55
2022-10-10T06:47:32.572Z,22.25
2022-10-10T06:48:05.016Z,16.05
2022-10-10T06:48:37.959Z,13.75
2022-10-10T06:49:09.956Z,13.65
2022-10-10T06:49:41.766Z,10.85
2022-10-10T06:50:14.582Z,9.65
2022-10-10T06:50:56.280Z,8.90
2022-10-10T06:51:28.988Z,9.10
2022-10-10T06:52:00.797Z,9.88
2022-10-10T06:52:32.560Z,8.88
2022-10-10T06:53:05.823Z,9.07
2022-10-10T06:53:37.634Z,9.32
2022-10-10T06:54:11.786Z,8.60
2022-10-10T06:54:43.789Z,8.30
2022-10-10T06:55:15.735Z,8.30
2022-10-10T06:55:48.465Z,8.10
2022-10-10T06:56:24.949Z,8.57
2022-10-10T06:57:00.272Z,8.05
2022-10-10T06:57:32.132Z,9.27
2022-10-10T06:58:04.094Z,9.63
2022-10-10T06:58:36.909Z,8.63
2022-10-10T06:59:08.689Z,8.10
2022-10-10T06:59:40.518Z,8.20
2022-10-10T07:00:14.393Z,7.53
2022-10-10T07:00:50.005Z,10.27
2022-10-10T07:01:24.708Z,13.60
2022-10-10T07:01:56.578Z,15.15
2022-10-10T07:02:28.527Z,15.05
2022-10-10T07:03:02.612Z,13.63
2022-10-10T07:03:34.415Z,14.85
2022-10-10T07:04:07.207Z,22.98
2022-10-10T07:04:39.003Z,19.20
2022-10-10T07:05:12.066Z,18.85
2022-10-10T07:05:45.141Z,14.77
2022-10-10T07:06:18.157Z,12.68
2022-10-10T07:06:50.938Z,11.00
2022-10-10T07:07:22.700Z,19.92
2022-10-10T07:07:54.492Z,29.83
2022-10-10T07:08:28.052Z,29.33
2022-10-10T07:08:59.797Z,26.00
2022-10-10T07:09:32.676Z,21.90
2022-10-10T07:10:05.129Z,22.17
2022-10-10T07:10:36.916Z,18.35
2022-10-10T07:11:10.710Z,16.02
2022-10-10T07:11:45.269Z,21.83
2022-10-10T07:12:17.255Z,22.20
2022-10-10T07:12:50.022Z,24.55
2022-10-10T07:13:22.065Z,32.85
2022-10-10T07:13:54.109Z,25.23
2022-10-10T07:14:27.525Z,18.00
2022-10-10T07:14:59.317Z,11.95
2022-10-10T07:15:31.102Z,12.60
2022-10-10T07:16:04.956Z,30.58
2022-10-10T07:16:36.725Z,16.90
2022-10-10T07:17:08.906Z,34.00
2022-10-10T07:17:41.648Z,28.80
2022-10-10T07:18:17.179Z,17.65
2022-10-10T07:18:49.029Z,14.13
2022-10-10T07:19:24.658Z,14.88